createdAt,value
2023-03-28T00:01:09.725Z,4.46
2023-03-28T00:03:40.774Z,4.34
2023-03-28T00:06:11.753Z,4.38
2023-03-28T00:08:41.034Z,4.40
2023-03-28T00:11:12.723Z,4.37
2023-03-28T00:13:40.956Z,4.30
2023-03-28T00:16:12.550Z,4.35
2023-03-28T00:18:42.986Z,4.26
2023-03-28T00:21:23.652Z,4.26
2023-03-28T00:23:53.758Z,4.27
2023-03-28T00:26:22.733Z,4.23
2023-03-28T00:28:52.101Z,4.24
2023-03-28T00:31:20.667Z,4.17
2023-03-28T00:33:50.232Z,4.24
2023-03-28T00:36:22.984Z,4.27
2023-03-28T00:38:52.150Z,4.20
2023-03-28T00:41:22.039Z,4.17
2023-03-28T00:43:51.985Z,4.05
2023-03-28T00:46:24.080Z,4.03
2023-03-28T00:48:56.424Z,4.12
2023-03-28T00:51:28.098Z,4.08
2023-03-28T00:54:00.194Z,4.08
2023-03-28T00:56:31.735Z,4.05
2023-03-28T00:59:03.353Z,3.98
2023-03-28T01:01:31.775Z,4.03
2023-03-28T01:04:03.458Z,3.99
2023-03-28T01:06:34.160Z,3.89
2023-03-28T01:09:05.786Z,3.83
2023-03-28T01:11:35.728Z,3.80
2023-03-28T01:14:07.291Z,3.83
2023-03-28T01:16:42.184Z,3.73
2023-03-28T01:19:26.823Z,3.77
2023-03-28T01:22:20.650Z,3.87
2023-03-28T01:25:29.200Z,3.88
2023-03-28T01:28:02.563Z,3.87
2023-03-28T01:30:57.674Z,3.79
2023-03-28T01:34:06.814Z,3.79
2023-03-28T01:37:05.744Z,3.76
2023-03-28T01:39:49.121Z,3.74
2023-03-28T01:42:28.715Z,3.64
2023-03-28T01:45:08.612Z,3.71
2023-03-28T01:47:41.182Z,3.76
2023-03-28T01:50:18.367Z,3.64
2023-03-28T01:52:51.684Z,3.68
2023-03-28T01:55:24.278Z,3.62
2023-03-28T01:57:56.851Z,3.60
2023-03-28T02:00:30.781Z,3.61
2023-03-28T02:03:06.565Z,3.53
2023-03-28T02:05:37.792Z,3.56
2023-03-28T02:08:11.550Z,3.58
2023-03-28T02:10:44.023Z,3.48
2023-03-28T02:13:18.948Z,3.49
2023-03-28T02:15:50.483Z,3.53
2023-03-28T02:18:23.704Z,3.49
2023-03-28T02:20:56.539Z,3.55
2023-03-28T02:23:31.598Z,3.55
2023-03-28T02:26:00.005Z,3.56
2023-03-28T02:28:29.592Z,3.61
2023-03-28T02:30:58.098Z,3.53
2023-03-28T02:33:39.658Z,3.58
2023-03-28T02:36:23.517Z,3.54
2023-03-28T02:39:04.611Z,3.53
2023-03-28T02:41:44.350Z,3.52
2023-03-28T02:44:33.280Z,3.59
2023-03-28T02:47:09.752Z,3.43
2023-03-28T02:49:50.777Z,3.35
2023-03-28T02:52:30.728Z,3.43
2023-03-28T02:55:09.508Z,3.44
2023-03-28T02:57:42.885Z,3.35
2023-03-28T03:00:13.329Z,3.35
2023-03-28T03:02:43.427Z,3.41
2023-03-28T03:05:11.972Z,3.34
2023-03-28T03:07:40.043Z,3.44
2023-03-28T03:10:12.405Z,3.42
2023-03-28T03:12:40.342Z,3.38
2023-03-28T03:15:10.572Z,3.43
2023-03-28T03:17:39.548Z,3.46
2023-03-28T03:20:08.840Z,3.49
2023-03-28T03:22:37.470Z,3.41
2023-03-28T03:25:06.849Z,3.39
2023-03-28T03:27:37.770Z,3.40
2023-03-28T03:30:07.318Z,3.36
2023-03-28T03:32:35.306Z,3.34
2023-03-28T03:35:03.432Z,3.42
2023-03-28T03:37:31.456Z,3.47
2023-03-28T03:39:59.371Z,3.46
2023-03-28T03:42:27.415Z,3.51
2023-03-28T03:44:56.845Z,3.51
2023-03-28T03:47:24.778Z,3.51
2023-03-28T03:49:52.766Z,3.50
2023-03-28T03:52:20.872Z,3.48
2023-03-28T03:54:48.725Z,3.53
2023-03-28T03:57:17.496Z,3.50
2023-03-28T03:59:45.864Z,3.52
2023-03-28T04:02:15.520Z,3.50
2023-03-28T04:04:45.665Z,3.50
2023-03-28T04:07:14.131Z,3.54
2023-03-28T04:09:42.328Z,3.55
2023-03-28T04:12:12.724Z,3.56
2023-03-28T04:14:40.840Z,3.57
2023-03-28T04:17:08.712Z,3.56
2023-03-28T04:19:40.910Z,3.61
2023-03-28T04:22:12.986Z,3.62
2023-03-28T04:24:41.796Z,3.68
2023-03-28T04:27:10.215Z,3.66
2023-03-28T04:29:39.418Z,3.65
2023-03-28T04:32:07.900Z,3.69
2023-03-28T04:34:38.915Z,3.71
2023-03-28T04:37:09.360Z,3.69
2023-03-28T04:39:37.303Z,3.64
2023-03-28T04:42:06.130Z,3.64
2023-03-28T04:44:34.146Z,3.68
2023-03-28T04:47:02.163Z,3.63
2023-03-28T04:49:30.076Z,3.62
2023-03-28T04:51:59.552Z,3.68
2023-03-28T04:54:28.022Z,3.68
2023-03-28T04:56:56.153Z,3.65
2023-03-28T04:59:24.450Z,3.66
2023-03-28T05:01:52.776Z,3.71
2023-03-28T05:04:23.638Z,3.71
2023-03-28T05:06:51.983Z,3.73
2023-03-28T05:09:22.618Z,3.77
2023-03-28T05:11:51.250Z,3.82
2023-03-28T05:14:19.413Z,3.84
2023-03-28T05:16:47.288Z,3.89
2023-03-28T05:19:15.495Z,3.93
2023-03-28T05:21:43.508Z,3.98
2023-03-28T05:24:11.512Z,4.10
2023-03-28T05:26:40.823Z,4.09
2023-03-28T05:29:08.905Z,4.10
2023-03-28T05:31:37.029Z,4.04
2023-03-28T05:34:05.041Z,4.13
2023-03-28T05:36:33.030Z,4.20
2023-03-28T05:39:00.903Z,4.20
2023-03-28T05:41:28.839Z,4.20
2023-03-28T05:43:58.138Z,4.22
2023-03-28T05:46:26.144Z,4.19
2023-03-28T05:48:54.190Z,4.23
2023-03-28T05:51:22.105Z,4.28
2023-03-28T05:53:50.180Z,4.47
2023-03-28T05:56:18.033Z,4.52
2023-03-28T05:58:46.124Z,4.58
2023-03-28T06:01:18.592Z,4.69
2023-03-28T06:03:47.809Z,4.74
2023-03-28T06:06:18.013Z,4.74
2023-03-28T06:08:46.170Z,4.77
2023-03-28T06:11:14.662Z,4.80
2023-03-28T06:13:42.535Z,4.81
2023-03-28T06:16:10.919Z,4.79
2023-03-28T06:18:40.369Z,4.86
2023-03-28T06:21:08.715Z,4.90
2023-03-28T06:23:36.847Z,4.97
2023-03-28T06:26:05.089Z,4.96
2023-03-28T06:28:32.975Z,5.02
2023-03-28T06:31:01.080Z,5.09
2023-03-28T06:33:29.217Z,5.16
2023-03-28T06:35:58.547Z,5.14
2023-03-28T06:38:30.246Z,5.23
2023-03-28T06:40:58.370Z,5.28
2023-03-28T06:43:26.692Z,5.26
2023-03-28T06:45:54.947Z,5.32
2023-03-28T06:48:23.045Z,5.38
2023-03-28T06:50:51.425Z,5.43
2023-03-28T06:53:21.934Z,5.50
2023-03-28T06:55:51.244Z,5.52
2023-03-28T06:58:19.675Z,5.53
2023-03-28T07:00:47.888Z,5.62
2023-03-28T07:03:15.899Z,5.75
2023-03-28T07:05:44.173Z,5.82
2023-03-28T07:08:14.534Z,5.87
2023-03-28T07:10:44.222Z,6.00
2023-03-28T07:13:12.525Z,6.11
2023-03-28T07:15:40.481Z,6.14
2023-03-28T07:18:10.745Z,6.19
2023-03-28T07:20:41.566Z,6.31
2023-03-28T07:23:09.585Z,6.36
2023-03-28T07:25:37.530Z,6.49
2023-03-28T07:28:06.812Z,6.58
2023-03-28T07:30:34.761Z,6.52
2023-03-28T07:33:14.223Z,6.75
2023-03-28T07:35:46.651Z,7.58
2023-03-28T07:38:14.725Z,9.10
2023-03-28T07:40:42.810Z,9.88
2023-03-28T07:43:12.889Z,11.41
2023-03-28T07:45:40.835Z,12.72
2023-03-28T07:48:09.158Z,13.38
2023-03-28T07:50:37.151Z,14.38
2023-03-28T07:53:05.094Z,15.65
2023-03-28T07:55:39.372Z,16.48
2023-03-28T07:58:17.655Z,17.11
2023-03-28T08:00:45.880Z,18.02
2023-03-28T08:03:14.334Z,18.35
2023-03-28T08:05:43.456Z,19.08
2023-03-28T08:08:11.893Z,19.32
2023-03-28T08:10:39.812Z,20.10
2023-03-28T08:13:08.446Z,20.03
2023-03-28T08:15:37.840Z,19.85
2023-03-28T08:18:05.825Z,20.48
2023-03-28T08:20:34.354Z,20.59
2023-03-28T08:23:03.513Z,20.23
2023-03-28T08:25:31.631Z,20.46
2023-03-28T08:27:59.500Z,20.52
2023-03-28T08:30:28.774Z,21.21
2023-03-28T08:32:58.114Z,21.39
2023-03-28T08:35:27.293Z,21.29
2023-03-28T08:37:55.885Z,19.51
2023-03-28T08:40:28.402Z,17.76
2023-03-28T08:43:07.008Z,18.87
2023-03-28T08:45:47.421Z,18.31
2023-03-28T08:48:28.115Z,19.34
2023-03-28T08:51:02.842Z,17.87
2023-03-28T08:53:35.515Z,17.79
2023-03-28T08:56:06.554Z,18.90
2023-03-28T08:58:42.715Z,19.68
2023-03-28T09:01:11.294Z,19.60
2023-03-28T09:03:40.984Z,18.70
2023-03-28T09:06:20.898Z,18.82
2023-03-28T09:09:01.846Z,19.76
2023-03-28T09:11:39.482Z,19.86
2023-03-28T09:14:24.809Z,20.69
2023-03-28T09:17:05.775Z,19.87
2023-03-28T09:19:48.763Z,18.42
2023-03-28T09:22:28.223Z,18.33
2023-03-28T09:25:14.496Z,16.83
2023-03-28T09:27:52.806Z,15.38
2023-03-28T09:30:24.463Z,14.93
2023-03-28T09:32:58.744Z,14.32
2023-03-28T09:35:30.050Z,14.54
2023-03-28T09:38:02.343Z,13.81
2023-03-28T09:40:32.044Z,13.16
2023-03-28T09:43:10.193Z,13.23
2023-03-28T09:45:46.574Z,13.75
2023-03-28T09:48:22.312Z,13.69
2023-03-28T09:50:52.555Z,13.51
2023-03-28T09:53:26.170Z,13.30
2023-03-28T09:56:04.483Z,12.69
2023-03-28T09:58:50.586Z,12.11
2023-03-28T10:01:27.909Z,11.84
2023-03-28T10:03:57.488Z,11.86
2023-03-28T10:06:29.638Z,11.98
2023-03-28T10:09:11.832Z,11.90
2023-03-28T10:11:47.808Z,11.93
2023-03-28T10:14:37.202Z,11.77
2023-03-28T10:17:08.268Z,11.52
2023-03-28T10:19:39.518Z,11.12
2023-03-28T10:22:13.302Z,10.96
2023-03-28T10:24:42.343Z,10.81
2023-03-28T10:27:18.092Z,10.74
2023-03-28T10:29:48.092Z,10.83
2023-03-28T10:32:25.982Z,10.73
2023-03-28T10:35:03.122Z,10.54
2023-03-28T10:37:35.581Z,10.49
2023-03-28T10:40:07.864Z,10.52
2023-03-28T10:42:43.915Z,10.42
2023-03-28T10:45:25.063Z,10.42
2023-03-28T10:47:58.061Z,10.68
2023-03-28T10:50:33.504Z,10.88
2023-03-28T10:53:19.221Z,11.14
2023-03-28T10:56:02.166Z,11.19
2023-03-28T10:58:36.376Z,11.32
2023-03-28T11:01:11.395Z,11.39
2023-03-28T11:03:59.530Z,11.45
2023-03-28T11:06:35.312Z,11.64
2023-03-28T11:09:17.141Z,11.65
2023-03-28T11:11:56.867Z,11.74
2023-03-28T11:14:38.984Z,11.92
2023-03-28T11:21:29.988Z,11.72
2023-03-28T11:24:29.148Z,11.66
2023-03-28T11:27:14.716Z,11.36
2023-03-28T11:29:49.289Z,11.33
2023-03-28T11:32:23.299Z,11.41
2023-03-28T11:35:04.055Z,11.33
2023-03-28T11:37:37.560Z,11.26
2023-03-28T11:40:16.381Z,11.25
2023-03-28T11:42:48.355Z,11.23
2023-03-28T11:45:37.543Z,11.19
2023-03-28T11:48:18.893Z,11.03
2023-03-28T11:50:54.957Z,11.01
2023-03-28T11:53:27.787Z,11.28
2023-03-28T11:56:03.967Z,11.53
2023-03-28T11:58:37.160Z,11.65
2023-03-28T12:01:10.264Z,11.42
2023-03-28T12:04:00.154Z,11.54
2023-03-28T12:06:34.574Z,11.36
2023-03-28T12:09:12.597Z,11.60
2023-03-28T12:11:49.228Z,11.88
2023-03-28T12:14:38.076Z,11.80
2023-03-28T12:17:19.497Z,12.06
2023-03-28T12:19:48.665Z,11.73
2023-03-28T12:22:21.467Z,11.66
2023-03-28T12:24:58.368Z,11.51
2023-03-28T12:27:45.272Z,11.32
2023-03-28T12:30:21.357Z,11.05
2023-03-28T12:32:55.527Z,10.87
2023-03-28T12:35:30.719Z,10.73
2023-03-28T12:38:09.598Z,10.58
2023-03-28T12:40:53.248Z,10.70
2023-03-28T12:43:26.272Z,10.66
2023-03-28T12:46:00.668Z,10.62
2023-03-28T12:48:35.506Z,10.45
2023-03-28T12:51:10.565Z,10.27
2023-03-28T12:53:46.700Z,10.24
2023-03-28T12:56:17.464Z,10.27
2023-03-28T12:58:49.150Z,10.31
2023-03-28T13:01:29.007Z,10.17
2023-03-28T13:04:07.880Z,9.98
2023-03-28T13:06:45.212Z,10.04
2023-03-28T13:09:42.380Z,9.99
2023-03-28T13:12:29.330Z,9.95
2023-03-28T13:15:04.447Z,9.81
2023-03-28T13:17:37.846Z,9.64
2023-03-28T13:20:27.963Z,9.60
2023-03-28T13:23:02.259Z,9.62
2023-03-28T13:25:32.546Z,9.67
2023-03-28T13:28:23.365Z,9.85
2023-03-28T13:31:21.130Z,10.01
2023-03-28T13:33:53.386Z,10.02
2023-03-28T13:36:33.641Z,10.17
2023-03-28T13:39:10.230Z,10.32
2023-03-28T13:41:57.472Z,10.27
2023-03-28T13:44:32.358Z,10.43
2023-03-28T13:47:03.309Z,10.69
2023-03-28T13:49:38.718Z,10.87
2023-03-28T13:52:11.671Z,11.17
2023-03-28T13:54:39.674Z,11.38
2023-03-28T13:57:14.258Z,11.54
2023-03-28T13:59:50.743Z,11.54
2023-03-28T14:02:22.954Z,11.63
2023-03-28T14:04:56.064Z,11.44
2023-03-28T14:07:28.743Z,11.54
2023-03-28T14:09:57.623Z,11.62
2023-03-28T14:12:29.081Z,11.61
2023-03-28T14:14:59.893Z,11.49
2023-03-28T14:17:33.800Z,11.58
2023-03-28T14:20:05.046Z,11.50
2023-03-28T14:22:36.252Z,11.51
2023-03-28T14:25:14.246Z,11.58
2023-03-28T14:27:45.108Z,11.53
2023-03-28T14:30:22.108Z,11.64
2023-03-28T14:32:58.957Z,11.56
2023-03-28T14:35:29.401Z,11.42
2023-03-28T14:37:59.381Z,11.39
2023-03-28T14:40:33.467Z,11.45
2023-03-28T14:43:04.586Z,11.35
2023-03-28T14:45:37.590Z,11.22
2023-03-28T14:48:10.453Z,11.22
2023-03-28T14:50:41.982Z,11.28
2023-03-28T14:53:19.914Z,11.21
2023-03-28T14:55:49.890Z,11.33
2023-03-28T14:58:20.525Z,11.25
2023-03-28T15:00:51.904Z,11.17
2023-03-28T15:03:24.504Z,11.08
2023-03-28T15:05:54.663Z,11.24
2023-03-28T15:08:28.334Z,11.23
2023-03-28T15:10:57.090Z,11.22
2023-03-28T15:13:31.952Z,11.16
2023-03-28T15:16:00.346Z,11.22
2023-03-28T15:18:34.130Z,11.20
2023-03-28T15:21:05.255Z,11.15
2023-03-28T15:23:36.726Z,11.11
2023-03-28T15:26:10.252Z,11.40
2023-03-28T15:28:38.611Z,11.48
2023-03-28T15:31:08.362Z,11.49
2023-03-28T15:33:37.918Z,11.34
2023-03-28T15:36:08.726Z,11.30
2023-03-28T15:38:39.807Z,10.93
2023-03-28T15:41:11.246Z,11.06
2023-03-28T15:43:41.441Z,11.23
2023-03-28T15:46:14.596Z,11.37
2023-03-28T15:48:44.705Z,11.37
2023-03-28T15:51:17.020Z,11.32
2023-03-28T15:53:47.768Z,11.34
2023-03-28T15:56:24.638Z,10.96
2023-03-28T15:58:53.636Z,10.98
2023-03-28T16:01:26.042Z,11.12
2023-03-28T16:04:16.872Z,11.20
2023-03-28T16:06:46.703Z,11.20
2023-03-28T16:09:18.327Z,10.98
2023-03-28T16:11:48.200Z,11.05
2023-03-28T16:14:19.337Z,10.95
2023-03-28T16:16:47.460Z,10.83
2023-03-28T16:19:21.922Z,10.86
2023-03-28T16:21:50.011Z,10.89
2023-03-28T16:24:19.743Z,10.99
2023-03-28T16:26:48.236Z,10.74
2023-03-28T16:29:18.654Z,10.91
2023-03-28T16:31:47.708Z,11.14
2023-03-28T16:34:16.743Z,11.02
2023-03-28T16:36:47.068Z,10.89
2023-03-28T16:39:15.298Z,10.78
2023-03-28T16:41:44.032Z,10.69
2023-03-28T16:44:13.483Z,10.77
2023-03-28T16:46:41.854Z,10.72
2023-03-28T16:49:10.718Z,10.81
2023-03-28T16:51:39.238Z,10.86
2023-03-28T16:54:10.746Z,10.88
2023-03-28T16:56:41.704Z,10.75
2023-03-28T16:59:10.359Z,10.76
2023-03-28T17:01:39.188Z,10.74
2023-03-28T17:04:07.819Z,10.52
2023-03-28T17:06:36.388Z,10.38
2023-03-28T17:09:05.820Z,10.25
2023-03-28T17:11:40.552Z,10.12
2023-03-28T17:14:08.606Z,10.28
2023-03-28T17:16:41.288Z,10.29
2023-03-28T17:19:09.955Z,10.36
2023-03-28T17:21:38.264Z,10.33
2023-03-28T17:24:11.542Z,10.31
2023-03-28T17:26:41.548Z,10.40
2023-03-28T17:29:12.281Z,10.26
2023-03-28T17:31:40.713Z,10.36
2023-03-28T17:34:09.439Z,10.15
2023-03-28T17:36:37.499Z,10.08
2023-03-28T17:39:06.966Z,10.00
2023-03-28T17:41:37.790Z,9.87
2023-03-28T17:44:09.016Z,9.85
2023-03-28T17:46:37.658Z,10.00
2023-03-28T17:49:08.241Z,10.00
2023-03-28T17:51:36.579Z,9.78
2023-03-28T17:54:07.248Z,9.56
2023-03-28T17:56:35.650Z,9.58
2023-03-28T17:59:12.913Z,9.50
2023-03-28T18:01:42.469Z,9.38
2023-03-28T18:04:10.497Z,9.50
2023-03-28T18:06:38.941Z,9.44
2023-03-28T18:09:07.772Z,9.37
2023-03-28T18:11:36.555Z,9.43
2023-03-28T18:14:04.808Z,9.48
2023-03-28T18:16:33.995Z,9.40
2023-03-28T18:19:06.830Z,9.42
2023-03-28T18:21:34.919Z,9.46
2023-03-28T18:24:03.205Z,9.28
2023-03-28T18:26:31.708Z,9.09
2023-03-28T18:28:59.818Z,9.11
2023-03-28T18:31:28.421Z,9.14
2023-03-28T18:33:57.832Z,9.03
2023-03-28T18:36:27.779Z,9.09
2023-03-28T18:38:56.505Z,9.06
2023-03-28T18:41:25.336Z,9.15
2023-03-28T18:43:53.878Z,9.27
2023-03-28T18:46:22.124Z,9.22
2023-03-28T18:48:50.917Z,9.13
2023-03-28T18:51:20.476Z,9.14
2023-03-28T18:53:49.814Z,9.18
2023-03-28T18:56:18.719Z,9.18
2023-03-28T18:58:50.860Z,9.18
2023-03-28T19:01:20.639Z,9.27
2023-03-28T19:03:49.965Z,9.28
2023-03-28T19:06:18.630Z,9.34
2023-03-28T19:08:47.572Z,9.34
2023-03-28T19:11:19.821Z,9.28
2023-03-28T19:13:48.050Z,9.24
2023-03-28T19:16:19.398Z,9.12
2023-03-28T19:18:48.171Z,9.24
2023-03-28T19:21:17.497Z,9.27
2023-03-28T19:23:46.137Z,9.30
2023-03-28T19:26:14.410Z,9.21
2023-03-28T19:28:43.759Z,9.23
2023-03-28T19:31:14.347Z,9.32
2023-03-28T19:33:43.351Z,9.25
2023-03-28T19:36:12.335Z,9.35
2023-03-28T19:38:41.149Z,9.37
2023-03-28T19:41:15.717Z,9.37
2023-03-28T19:43:45.735Z,9.33
2023-03-28T19:46:18.657Z,9.34
2023-03-28T19:48:46.908Z,9.34
2023-03-28T19:51:15.556Z,9.36
2023-03-28T19:53:43.514Z,9.38
2023-03-28T19:56:12.183Z,9.40
2023-03-28T19:58:40.167Z,9.35
2023-03-28T20:01:09.925Z,9.32
2023-03-28T20:03:38.427Z,9.30
2023-03-28T20:06:08.559Z,9.24
2023-03-28T20:08:37.004Z,9.26
2023-03-28T20:11:08.595Z,9.31
2023-03-28T20:13:37.241Z,9.33
2023-03-28T20:16:06.786Z,9.33
2023-03-28T20:18:37.201Z,9.40
2023-03-28T20:21:07.438Z,9.43
2023-03-28T20:23:35.698Z,9.34
2023-03-28T20:26:14.254Z,9.34
2023-03-28T20:28:42.534Z,9.23
2023-03-28T20:31:13.506Z,9.27
2023-03-28T20:33:43.019Z,9.26
2023-03-28T20:36:11.310Z,9.24
2023-03-28T20:38:39.251Z,9.30
2023-03-28T20:41:11.318Z,9.25
2023-03-28T20:43:40.702Z,9.20
2023-03-28T20:46:10.021Z,9.16
2023-03-28T20:48:38.198Z,9.16
2023-03-28T20:51:14.278Z,9.15
2023-03-28T20:53:44.640Z,9.11
2023-03-28T20:56:13.545Z,9.15
2023-03-28T20:58:42.810Z,9.13
2023-03-28T21:01:13.239Z,9.15
2023-03-28T21:03:48.376Z,9.10
2023-03-28T21:06:19.228Z,9.09
2023-03-28T21:08:49.552Z,9.08
2023-03-28T21:11:19.830Z,9.09
2023-03-28T21:13:47.988Z,9.13
2023-03-28T21:16:16.814Z,9.14
2023-03-28T21:18:45.704Z,9.10
2023-03-28T21:21:16.136Z,9.17
2023-03-28T21:23:46.840Z,9.09
2023-03-28T21:26:17.408Z,9.06
2023-03-28T21:28:46.565Z,9.09
2023-03-28T21:31:16.092Z,9.09
2023-03-28T21:33:44.574Z,9.06
2023-03-28T21:36:16.177Z,9.06
2023-03-28T21:38:46.241Z,9.02
2023-03-28T21:41:14.679Z,8.95
2023-03-28T21:43:43.051Z,9.00
2023-03-28T21:46:12.750Z,8.83
2023-03-28T21:48:42.112Z,8.80
2023-03-28T21:51:10.972Z,8.88
2023-03-28T21:53:39.788Z,8.82
2023-03-28T21:56:12.210Z,8.88
2023-03-28T21:58:41.913Z,8.89
2023-03-28T22:01:14.902Z,8.86
2023-03-28T22:03:42.986Z,8.91
2023-03-28T22:06:12.018Z,8.88
2023-03-28T22:08:42.055Z,8.70
2023-03-28T22:11:17.822Z,8.67
2023-03-28T22:13:47.544Z,8.74
2023-03-28T22:16:15.680Z,8.77
2023-03-28T22:18:50.137Z,8.80
2023-03-28T22:21:19.010Z,8.81
2023-03-28T22:23:47.925Z,8.79
2023-03-28T22:26:18.156Z,8.76
2023-03-28T22:28:48.216Z,8.74
2023-03-28T22:31:17.456Z,8.62
2023-03-28T22:33:45.434Z,8.58
2023-03-28T22:36:13.716Z,8.65
2023-03-28T22:38:41.944Z,8.69
2023-03-28T22:41:09.917Z,8.66
2023-03-28T22:43:42.778Z,8.78
2023-03-28T22:46:16.481Z,8.53
2023-03-28T22:48:44.637Z,8.55
2023-03-28T22:51:13.070Z,8.58
2023-03-28T22:53:40.930Z,8.49
2023-03-28T22:56:09.625Z,8.32
2023-03-28T22:58:41.711Z,8.17
2023-03-28T23:01:09.987Z,7.77
2023-03-28T23:03:38.220Z,7.75
2023-03-28T23:06:06.970Z,7.89
2023-03-28T23:08:35.608Z,7.95
2023-03-28T23:11:03.904Z,8.01
2023-03-28T23:13:32.201Z,8.01
2023-03-28T23:16:02.108Z,8.06
2023-03-28T23:18:31.484Z,7.98
2023-03-28T23:20:59.815Z,8.07
2023-03-28T23:23:28.332Z,8.20
2023-03-28T23:25:56.296Z,8.26
2023-03-28T23:28:24.682Z,8.35
2023-03-28T23:30:52.981Z,8.48
2023-03-28T23:33:22.275Z,8.51
2023-03-28T23:35:51.863Z,8.61
2023-03-28T23:38:20.125Z,8.66
2023-03-28T23:40:48.337Z,8.68
2023-03-28T23:43:24.827Z,8.76
2023-03-28T23:45:54.056Z,8.82
2023-03-28T23:48:23.352Z,8.80
2023-03-28T23:50:51.598Z,8.73
2023-03-28T23:53:19.594Z,8.71
2023-03-28T23:55:47.719Z,8.78
2023-03-28T23:58:16.188Z,8.77
